Time;durP1;ratioP1;P1;durP2;ratioP2;P2;SDS_P1;SDS_P2;PMS_P1;PMS_P2;Temp;Humidity;BMP_temperature;BMP_pressure;BME280_temperature;BME280_humidity;BME280_pressure;Samples;Min_cycle;Max_cycle;Signal;HPM_P1;HPM_P2
2024/03/17 00:00:56;;;;;;;0.20;0.20;;;;;;;;;;5013368;28;20456;-71
2024/03/17 00:03:22;;;;;;;0.10;0.10;;;;;;;;;;5022496;28;20271;-71
2024/03/17 00:05:57;;;;;;;0.20;0.20;;;;;;;;;;5013402;28;20244;-71
2024/03/17 00:08:22;;;;;;;0.17;0.17;;;;;;;;;;5023150;28;20241;-71
2024/03/17 00:10:55;;;;;;;0.10;0.10;;;;;;;;;;5013288;28;20244;-71
2024/03/17 00:13:21;;;;;;;0.10;0.10;;;;;;;;;;5022988;28;20212;-71
2024/03/17 00:15:48;;;;;;;0.70;0.70;;;;;;;;;;5013085;28;20263;-71
2024/03/17 00:18:13;;;;;;;0.10;0.10;;;;;;;;;;5022853;28;20241;-71
2024/03/17 00:20:40;;;;;;;0.10;0.10;;;;;;;;;;5013064;28;20248;-71
2024/03/17 00:23:08;;;;;;;0.20;0.20;;;;;;;;;;5022751;28;20512;-71
2024/03/17 00:25:35;;;;;;;0.20;0.20;;;;;;;;;;5013100;28;20248;-71
2024/03/17 00:28:00;;;;;;;0.10;0.10;;;;;;;;;;5022733;28;20205;-71
2024/03/17 00:30:27;;;;;;;0.10;0.10;;;;;;;;;;5013409;28;20208;-71
2024/03/17 00:32:53;;;;;;;0.10;0.10;;;;;;;;;;5022650;28;20211;-71
2024/03/17 00:35:21;;;;;;;0.10;0.10;;;;;;;;;;5013341;28;20398;-71
2024/03/17 00:37:47;;;;;;;0.13;0.13;;;;;;;;;;5022215;28;20259;-71
2024/03/17 00:40:16;;;;;;;0.20;0.20;;;;;;;;;;5013032;28;20201;-71
2024/03/17 00:42:41;;;;;;;0.10;0.10;;;;;;;;;;5022451;28;20381;-72
2024/03/17 00:45:09;;;;;;;0.73;0.73;;;;;;;;;;5023204;28;20256;-71
2024/03/17 00:47:34;;;;;;;0.20;0.20;;;;;;;;;;5012424;28;20217;-71
2024/03/17 00:50:00;;;;;;;0.10;0.10;;;;;;;;;;5023296;28;20276;-71
2024/03/17 00:52:27;;;;;;;0.10;0.10;;;;;;;;;;5028732;28;20240;-71
2024/03/17 00:54:53;;;;;;;0.10;0.10;;;;;;;;;;5023308;28;20204;-71
2024/03/17 00:57:20;;;;;;;0.20;0.20;;;;;;;;;;5012164;28;20561;-71
2024/03/17 00:59:47;;;;;;;0.10;0.10;;;;;;;;;;5023013;28;20213;-70
2024/03/17 01:02:12;;;;;;;0.10;0.10;;;;;;;;;;5011786;28;20477;-71
2024/03/17 01:04:40;;;;;;;0.13;0.13;;;;;;;;;;5023302;28;20236;-71
2024/03/17 01:07:05;;;;;;;0.10;0.10;;;;;;;;;;5012016;28;20248;-71
2024/03/17 01:09:32;;;;;;;0.17;0.17;;;;;;;;;;5023201;28;20405;-71
2024/03/17 01:11:57;;;;;;;0.20;0.20;;;;;;;;;;5012051;28;20283;-71
2024/03/17 01:14:25;;;;;;;2.63;2.53;;;;;;;;;;5023290;28;20199;-70
2024/03/17 01:16:50;;;;;;;0.10;0.10;;;;;;;;;;5015782;28;20339;-70
2024/03/17 01:19:17;;;;;;;0.10;0.10;;;;;;;;;;5026403;28;20398;-70
2024/03/17 01:21:42;;;;;;;0.10;0.10;;;;;;;;;;5015443;28;20244;-70
2024/03/17 01:24:09;;;;;;;0.10;0.10;;;;;;;;;;5025900;28;20233;-70
2024/03/17 01:26:34;;;;;;;0.10;0.10;;;;;;;;;;5015584;28;20263;-70
2024/03/17 01:29:01;;;;;;;0.10;0.10;;;;;;;;;;5026189;28;20209;-70
2024/03/17 01:31:28;;;;;;;0.13;0.13;;;;;;;;;;5015525;28;20481;-71
2024/03/17 01:33:54;;;;;;;0.10;0.10;;;;;;;;;;5025679;28;20455;-70
2024/03/17 01:36:20;;;;;;;0.20;0.20;;;;;;;;;;5015359;28;20241;-70
2024/03/17 01:38:46;;;;;;;0.10;0.10;;;;;;;;;;5025841;28;20408;-70
2024/03/17 01:41:13;;;;;;;0.10;0.10;;;;;;;;;;5015584;28;20490;-70
2024/03/17 01:43:40;;;;;;;0.17;0.17;;;;;;;;;;5025738;28;20261;-70
2024/03/17 01:46:06;;;;;;;0.10;0.10;;;;;;;;;;5015311;28;20250;-70
2024/03/17 01:48:34;;;;;;;0.10;0.10;;;;;;;;;;5025584;28;20396;-70
2024/03/17 01:50:59;;;;;;;0.10;0.10;;;;;;;;;;5015563;28;20246;-70
2024/03/17 01:53:27;;;;;;;0.10;0.10;;;;;;;;;;5025307;28;20386;-71
2024/03/17 01:55:53;;;;;;;0.10;0.10;;;;;;;;;;5015395;28;20241;-70
2024/03/17 01:58:21;;;;;;;0.10;0.10;;;;;;;;;;5025054;28;20213;-71
2024/03/17 02:00:46;;;;;;;0.10;0.10;;;;;;;;;;5015409;28;20252;-70
2024/03/17 02:03:13;;;;;;;0.10;0.10;;;;;;;;;;5024621;28;20276;-72
2024/03/17 02:05:40;;;;;;;0.10;0.10;;;;;;;;;;5015470;28;20243;-70
2024/03/17 02:08:07;;;;;;;0.20;0.20;;;;;;;;;;5024668;28;20246;-70
2024/03/17 02:10:33;;;;;;;0.10;0.10;;;;;;;;;;5015217;28;20582;-71
2024/03/17 02:12:59;;;;;;;0.13;0.13;;;;;;;;;;5024515;28;20207;-71
2024/03/17 02:15:25;;;;;;;0.20;0.20;;;;;;;;;;5015198;28;20204;-70
2024/03/17 02:17:51;;;;;;;0.20;0.20;;;;;;;;;;5024534;28;20203;-70
2024/03/17 02:20:17;;;;;;;0.10;0.10;;;;;;;;;;5015152;28;20214;-71
2024/03/17 02:22:45;;;;;;;0.10;0.10;;;;;;;;;;5024280;28;20210;-71
2024/03/17 02:25:11;;;;;;;0.20;0.20;;;;;;;;;;5014911;28;20247;-71
2024/03/17 02:27:37;;;;;;;0.17;0.17;;;;;;;;;;5024212;28;20242;-70
2024/03/17 02:30:04;;;;;;;0.20;0.20;;;;;;;;;;5024983;28;20394;-71
2024/03/17 02:32:30;;;;;;;0.20;0.20;;;;;;;;;;5014050;28;20418;-71
2024/03/17 02:34:56;;;;;;;0.10;0.10;;;;;;;;;;5025306;28;20201;-70
2024/03/17 02:37:23;;;;;;;0.20;0.20;;;;;;;;;;5013660;28;20571;-70
2024/03/17 02:39:50;;;;;;;0.10;0.10;;;;;;;;;;5025262;28;20406;-70
2024/03/17 02:42:16;;;;;;;0.20;0.20;;;;;;;;;;5013856;28;20241;-71
2024/03/17 02:44:41;;;;;;;0.20;0.20;;;;;;;;;;5024735;28;20238;-71
2024/03/17 02:47:09;;;;;;;0.10;0.10;;;;;;;;;;5013591;28;20243;-70
2024/03/17 02:49:36;;;;;;;0.10;0.10;;;;;;;;;;5024795;28;20272;-71
2024/03/17 02:52:04;;;;;;;0.20;0.20;;;;;;;;;;5013766;28;20264;-70
2024/03/17 02:54:30;;;;;;;0.10;0.10;;;;;;;;;;5024498;28;20261;-70
2024/03/17 02:56:58;;;;;;;0.10;0.10;;;;;;;;;;5013798;28;20311;-70
2024/03/17 02:59:24;;;;;;;0.20;0.20;;;;;;;;;;5024467;28;20278;-71
2024/03/17 03:01:51;;;;;;;0.10;0.10;;;;;;;;;;5013522;28;20255;-70
2024/03/17 03:04:18;;;;;;;0.10;0.10;;;;;;;;;;5024239;28;20231;-70
2024/03/17 03:06:44;;;;;;;0.10;0.10;;;;;;;;;;5013631;28;20314;-71
2024/03/17 03:09:13;;;;;;;0.20;0.20;;;;;;;;;;5024058;28;20276;-70
2024/03/17 03:11:40;;;;;;;0.20;0.20;;;;;;;;;;5013504;28;20397;-70
2024/03/17 03:14:08;;;;;;;0.20;0.20;;;;;;;;;;5023988;28;20211;-70
2024/03/17 03:16:35;;;;;;;0.10;0.10;;;;;;;;;;5013576;28;20243;-71
2024/03/17 03:19:01;;;;;;;0.10;0.10;;;;;;;;;;5024109;28;20434;-71
2024/03/17 03:21:27;;;;;;;0.20;0.20;;;;;;;;;;5013650;28;20281;-71
2024/03/17 03:23:54;;;;;;;0.20;0.20;;;;;;;;;;5023459;28;20242;-71
2024/03/17 03:26:20;;;;;;;0.20;0.20;;;;;;;;;;5013392;28;20242;-70
2024/03/17 03:28:47;;;;;;;0.20;0.20;;;;;;;;;;5023861;28;20444;-71
2024/03/17 03:31:15;;;;;;;0.17;0.17;;;;;;;;;;5013296;28;20267;-72
2024/03/17 03:33:41;;;;;;;0.13;0.13;;;;;;;;;;5023671;28;20207;-71
2024/03/17 03:36:08;;;;;;;0.17;0.17;;;;;;;;;;5013384;28;20261;-70
2024/03/17 03:38:35;;;;;;;0.17;0.17;;;;;;;;;;5022418;28;20240;-71
2024/03/17 03:41:06;;;;;;;0.20;0.20;;;;;;;;;;5013390;28;20244;-71
2024/03/17 03:43:34;;;;;;;0.10;0.10;;;;;;;;;;5023479;28;20315;-71
2024/03/17 03:46:01;;;;;;;0.20;0.20;;;;;;;;;;5013138;28;20242;-71
2024/03/17 03:48:28;;;;;;;0.10;0.10;;;;;;;;;;5023288;28;20210;-71
2024/03/17 03:50:55;;;;;;;0.17;0.17;;;;;;;;;;5013584;28;20307;-71
2024/03/17 03:53:22;;;;;;;0.10;0.10;;;;;;;;;;5023105;28;20214;-71
2024/03/17 03:55:48;;;;;;;0.20;0.20;;;;;;;;;;5013514;28;20254;-73
2024/03/17 03:58:15;;;;;;;0.10;0.10;;;;;;;;;;5023089;28;20290;-71
2024/03/17 04:00:41;;;;;;;0.20;0.20;;;;;;;;;;5013337;28;20243;-71
2024/03/17 04:03:08;;;;;;;0.10;0.10;;;;;;;;;;5022922;28;20207;-71
2024/03/17 04:05:36;;;;;;;0.20;0.20;;;;;;;;;;5013190;28;20308;-71
2024/03/17 04:08:02;;;;;;;0.20;0.20;;;;;;;;;;5022407;28;20287;-71
2024/03/17 04:10:28;;;;;;;0.70;0.70;;;;;;;;;;5013656;28;20499;-71
2024/03/17 04:12:55;;;;;;;0.20;0.20;;;;;;;;;;5022682;28;20218;-72
2024/03/17 04:15:21;;;;;;;0.20;0.20;;;;;;;;;;5013453;28;20209;-71
2024/03/17 04:17:48;;;;;;;0.20;0.20;;;;;;;;;;5022312;28;20211;-71
2024/03/17 04:20:14;;;;;;;0.20;0.20;;;;;;;;;;5013341;28;20221;-71
2024/03/17 04:22:42;;;;;;;0.20;0.20;;;;;;;;;;5022605;28;20208;-71
2024/03/17 04:25:09;;;;;;;0.10;0.10;;;;;;;;;;5019904;28;20221;-71
2024/03/17 04:27:35;;;;;;;0.10;0.10;;;;;;;;;;5022395;28;20389;-71
2024/03/17 04:30:05;;;;;;;0.20;0.20;;;;;;;;;;5023561;28;20273;-71
2024/03/17 04:32:32;;;;;;;0.20;0.20;;;;;;;;;;5012180;28;20243;-71
2024/03/17 04:34:58;;;;;;;0.30;0.30;;;;;;;;;;5023287;28;20201;-71
2024/03/17 04:37:25;;;;;;;0.20;0.20;;;;;;;;;;5012174;28;20261;-71
2024/03/17 04:39:54;;;;;;;0.20;0.20;;;;;;;;;;5023238;28;20208;-71
2024/03/17 04:42:20;;;;;;;0.20;0.20;;;;;;;;;;5012027;28;20246;-71
2024/03/17 04:44:46;;;;;;;0.20;0.20;;;;;;;;;;5023407;28;20545;-71
2024/03/17 04:47:13;;;;;;;0.20;0.20;;;;;;;;;;5012255;28;20312;-72
2024/03/17 04:49:40;;;;;;;0.13;0.13;;;;;;;;;;5025994;28;20556;-71
2024/03/17 04:52:08;;;;;;;0.20;0.20;;;;;;;;;;5015829;28;20241;-71
2024/03/17 04:54:34;;;;;;;0.20;0.20;;;;;;;;;;5026886;28;20208;-71
2024/03/17 04:57:02;;;;;;;0.20;0.20;;;;;;;;;;5015851;28;20292;-71
2024/03/17 04:59:29;;;;;;;0.20;0.20;;;;;;;;;;5026767;28;20283;-71
2024/03/17 05:01:55;;;;;;;0.20;0.20;;;;;;;;;;5015858;28;20257;-71
2024/03/17 05:04:22;;;;;;;0.20;0.20;;;;;;;;;;5026181;28;20209;-71
2024/03/17 05:06:49;;;;;;;0.20;0.20;;;;;;;;;;5015770;28;20450;-71
2024/03/17 05:09:16;;;;;;;0.30;0.30;;;;;;;;;;5026113;28;20202;-71
2024/03/17 05:11:42;;;;;;;0.20;0.20;;;;;;;;;;5015817;28;20247;-72
2024/03/17 05:14:10;;;;;;;0.20;0.20;;;;;;;;;;5026081;28;20209;-71
2024/03/17 05:16:37;;;;;;;0.10;0.10;;;;;;;;;;5015781;28;20306;-71
2024/03/17 05:19:03;;;;;;;0.20;0.20;;;;;;;;;;5026315;28;20458;-71
2024/03/17 05:21:30;;;;;;;0.10;0.10;;;;;;;;;;5015697;28;20238;-71
2024/03/17 05:23:57;;;;;;;0.20;0.20;;;;;;;;;;5026126;28;20395;-70
2024/03/17 05:26:24;;;;;;;0.20;0.20;;;;;;;;;;5015532;28;20262;-71
2024/03/17 05:28:50;;;;;;;0.20;0.20;;;;;;;;;;5026047;28;20207;-71
2024/03/17 05:31:18;;;;;;;0.20;0.20;;;;;;;;;;5015688;28;20320;-71
2024/03/17 05:33:45;;;;;;;0.20;0.20;;;;;;;;;;5025935;28;20222;-71
2024/03/17 05:36:11;;;;;;;0.20;0.20;;;;;;;;;;5015608;28;20458;-73
2024/03/17 05:38:38;;;;;;;0.20;0.20;;;;;;;;;;5025416;28;20206;-71
2024/03/17 05:41:05;;;;;;;0.20;0.20;;;;;;;;;;5015588;28;20248;-71
2024/03/17 05:43:32;;;;;;;0.20;0.20;;;;;;;;;;5025615;28;20401;-70
2024/03/17 05:45:59;;;;;;;0.20;0.20;;;;;;;;;;5015567;28;20246;-71
2024/03/17 05:48:27;;;;;;;0.20;0.20;;;;;;;;;;5025367;28;20252;-72
2024/03/17 05:50:53;;;;;;;0.20;0.20;;;;;;;;;;5015557;28;20242;-71
2024/03/17 05:53:20;;;;;;;0.20;0.20;;;;;;;;;;5025228;28;20440;-71
2024/03/17 05:55:47;;;;;;;0.20;0.20;;;;;;;;;;5015481;28;20244;-72
2024/03/17 05:58:14;;;;;;;0.20;0.20;;;;;;;;;;5025057;28;20288;-71
2024/03/17 06:00:40;;;;;;;0.10;0.10;;;;;;;;;;5014619;28;20241;-71
2024/03/17 06:03:07;;;;;;;0.20;0.20;;;;;;;;;;5024878;28;20434;-71
2024/03/17 06:05:35;;;;;;;0.20;0.20;;;;;;;;;;5015271;28;20249;-71
2024/03/17 06:08:02;;;;;;;0.20;0.20;;;;;;;;;;5024541;28;20210;-71
2024/03/17 06:10:29;;;;;;;0.10;0.10;;;;;;;;;;5015300;28;20250;-71
2024/03/17 06:12:56;;;;;;;0.20;0.20;;;;;;;;;;5024394;28;20207;-71
2024/03/17 06:15:23;;;;;;;0.20;0.20;;;;;;;;;;5015167;28;20276;-71
2024/03/17 06:17:49;;;;;;;0.20;0.20;;;;;;;;;;5024588;28;20206;-71
2024/03/17 06:20:16;;;;;;;0.20;0.20;;;;;;;;;;5015490;28;20279;-72
2024/03/17 06:22:45;;;;;;;0.20;0.20;;;;;;;;;;5024327;28;20213;-71
2024/03/17 06:25:13;;;;;;;0.20;0.20;;;;;;;;;;5015397;28;20253;-71
2024/03/17 06:27:40;;;;;;;0.20;0.20;;;;;;;;;;5024241;28;20209;-71
2024/03/17 06:30:07;;;;;;;0.20;0.20;;;;;;;;;;5024956;28;20269;-71
2024/03/17 06:32:33;;;;;;;0.20;0.20;;;;;;;;;;5034004;28;20272;-71
2024/03/17 06:35:00;;;;;;;0.10;0.10;;;;;;;;;;5045084;28;20207;-71
2024/03/17 06:37:26;;;;;;;0.20;0.20;;;;;;;;;;5033424;28;20590;-72
2024/03/17 06:39:54;;;;;;;0.20;0.20;;;;;;;;;;5044653;28;20274;-72
2024/03/17 06:42:21;;;;;;;0.20;0.20;;;;;;;;;;5033732;28;20312;-71
2024/03/17 06:44:47;;;;;;;0.20;0.20;;;;;;;;;;5044767;28;20207;-72
2024/03/17 06:47:14;;;;;;;0.10;0.10;;;;;;;;;;5033404;28;20241;-71
2024/03/17 06:49:40;;;;;;;0.20;0.20;;;;;;;;;;5044489;28;20214;-71
2024/03/17 06:52:06;;;;;;;0.10;0.10;;;;;;;;;;5033518;28;20258;-71
2024/03/17 06:54:33;;;;;;;0.20;0.20;;;;;;;;;;5044252;28;20246;-71
2024/03/17 06:57:01;;;;;;;0.20;0.20;;;;;;;;;;5033424;28;20431;-71
2024/03/17 06:59:27;;;;;;;0.17;0.17;;;;;;;;;;5044014;28;20202;-71
2024/03/17 07:01:53;;;;;;;0.17;0.17;;;;;;;;;;5033340;28;20250;-71
2024/03/17 07:04:20;;;;;;;0.10;0.10;;;;;;;;;;5043977;28;20277;-71
2024/03/17 07:06:47;;;;;;;0.17;0.17;;;;;;;;;;5033211;28;20308;-71
2024/03/17 07:09:13;;;;;;;0.20;0.20;;;;;;;;;;5044031;28;20282;-71
2024/03/17 07:11:40;;;;;;;0.10;0.10;;;;;;;;;;5033170;28;20259;-71
2024/03/17 07:14:09;;;;;;;0.10;0.10;;;;;;;;;;5043606;28;20279;-71
2024/03/17 07:16:36;;;;;;;0.20;0.20;;;;;;;;;;5033307;28;20238;-71
2024/03/17 07:19:02;;;;;;;0.27;0.27;;;;;;;;;;5043866;28;20367;-71
2024/03/17 07:21:29;;;;;;;0.10;0.10;;;;;;;;;;5033181;28;20247;-71
2024/03/17 07:23:55;;;;;;;0.10;0.10;;;;;;;;;;5043796;28;20457;-70
2024/03/17 07:26:22;;;;;;;0.10;0.10;;;;;;;;;;5033311;28;20252;-70
2024/03/17 07:28:48;;;;;;;0.10;0.10;;;;;;;;;;5043431;28;20207;-70
2024/03/17 07:31:16;;;;;;;0.10;0.10;;;;;;;;;;5033188;28;20331;-70
2024/03/17 07:33:42;;;;;;;0.10;0.10;;;;;;;;;;5043478;28;20211;-70
2024/03/17 07:36:10;;;;;;;0.10;0.10;;;;;;;;;;5033455;28;20335;-71
2024/03/17 07:38:36;;;;;;;0.10;0.10;;;;;;;;;;5043085;28;20442;-71
2024/03/17 07:41:04;;;;;;;0.10;0.10;;;;;;;;;;5028293;28;20251;-70
2024/03/17 07:43:32;;;;;;;0.10;0.10;;;;;;;;;;5042937;28;20205;-70
2024/03/17 07:46:01;;;;;;;0.10;0.10;;;;;;;;;;5033201;28;20262;-70
2024/03/17 07:48:29;;;;;;;0.10;0.10;;;;;;;;;;5042784;28;20236;-70
2024/03/17 07:50:56;;;;;;;0.10;0.10;;;;;;;;;;5033231;28;20503;-70
2024/03/17 07:53:24;;;;;;;0.20;0.20;;;;;;;;;;5043058;28;20211;-71
2024/03/17 07:55:57;;;;;;;0.10;0.10;;;;;;;;;;5033258;28;20246;-70
2024/03/17 07:58:25;;;;;;;0.10;0.10;;;;;;;;;;5042799;28;20234;-70
2024/03/17 08:00:52;;;;;;;0.10;0.10;;;;;;;;;;5032959;28;20256;-70
2024/03/17 08:03:18;;;;;;;0.10;0.10;;;;;;;;;;5042796;28;20193;-70
2024/03/17 08:05:53;;;;;;;0.10;0.10;;;;;;;;;;5032991;28;20237;-70
2024/03/17 08:08:19;;;;;;;0.10;0.10;;;;;;;;;;5042825;28;20193;-71
2024/03/17 08:10:47;;;;;;;0.10;0.10;;;;;;;;;;5033114;28;20285;-70
2024/03/17 08:13:15;;;;;;;0.20;0.20;;;;;;;;;;5042614;28;20482;-70
2024/03/17 08:15:42;;;;;;;1.80;1.80;;;;;;;;;;5033120;28;20239;-70
2024/03/17 08:18:08;;;;;;;0.10;0.10;;;;;;;;;;5042382;28;20267;-70
2024/03/17 08:20:37;;;;;;;0.10;0.10;;;;;;;;;;5033122;28;20238;-70
2024/03/17 08:23:05;;;;;;;0.10;0.10;;;;;;;;;;5042255;28;20272;-73
2024/03/17 08:25:31;;;;;;;0.10;0.10;;;;;;;;;;5037091;28;20351;-72
2024/03/17 08:27:58;;;;;;;0.10;0.10;;;;;;;;;;5046257;28;20212;-70
2024/03/17 08:30:24;;;;;;;0.10;0.10;;;;;;;;;;5037408;28;20237;-71
2024/03/17 08:32:51;;;;;;;0.10;0.10;;;;;;;;;;5046302;28;20227;-70
2024/03/17 08:35:17;;;;;;;0.10;0.10;;;;;;;;;;5037334;28;20551;-70
2024/03/17 08:37:43;;;;;;;0.10;0.10;;;;;;;;;;5046073;28;20258;-72
2024/03/17 08:40:12;;;;;;;0.10;0.10;;;;;;;;;;5037477;28;20281;-70
2024/03/17 08:42:38;;;;;;;0.10;0.10;;;;;;;;;;5046202;28;20401;-71
2024/03/17 08:45:05;;;;;;;0.10;0.10;;;;;;;;;;5047221;28;20236;-71
2024/03/17 08:47:31;;;;;;;0.10;0.10;;;;;;;;;;5035739;28;20307;-71
2024/03/17 08:50:03;;;;;;;0.10;0.10;;;;;;;;;;5047086;28;20246;-72
2024/03/17 08:52:31;;;;;;;0.10;0.10;;;;;;;;;;5035877;28;20270;-71
2024/03/17 08:54:58;;;;;;;0.10;0.10;;;;;;;;;;5047054;28;20216;-71
2024/03/17 08:57:26;;;;;;;0.10;0.10;;;;;;;;;;5035660;28;20454;-70
2024/03/17 08:59:53;;;;;;;0.10;0.10;;;;;;;;;;5046950;28;20214;-70
2024/03/17 09:02:19;;;;;;;0.10;0.10;;;;;;;;;;5035664;28;20471;-71
2024/03/17 09:04:45;;;;;;;0.08;0.08;;;;;;;;;;5046738;28;20204;-71
2024/03/17 09:07:13;;;;;;;0.10;0.10;;;;;;;;;;5035331;28;20297;-70
2024/03/17 09:09:40;;;;;;;0.00;0.00;;;;;;;;;;5046661;28;20268;-71
2024/03/17 09:12:06;;;;;;;0.10;0.10;;;;;;;;;;5035430;28;20236;-71
2024/03/17 09:14:34;;;;;;;0.10;0.10;;;;;;;;;;5046602;28;20210;-70
2024/03/17 09:17:00;;;;;;;0.00;0.00;;;;;;;;;;5035386;28;20238;-71
2024/03/17 09:19:28;;;;;;;0.00;0.00;;;;;;;;;;5046088;28;20206;-71
2024/03/17 09:21:55;;;;;;;0.00;0.00;;;;;;;;;;5035394;28;20242;-71
2024/03/17 09:24:21;;;;;;;0.10;0.10;;;;;;;;;;5046243;28;20251;-71
2024/03/17 09:26:48;;;;;;;2.53;0.28;;;;;;;;;;5035442;28;20501;-70
2024/03/17 09:29:15;;;;;;;0.10;0.10;;;;;;;;;;5046180;28;20380;-71
2024/03/17 09:31:43;;;;;;;0.10;0.10;;;;;;;;;;5035466;28;20244;-71
2024/03/17 09:34:09;;;;;;;0.10;0.10;;;;;;;;;;5045933;28;20216;-70
2024/03/17 09:36:36;;;;;;;0.08;0.08;;;;;;;;;;5033967;28;20286;-71
2024/03/17 09:39:05;;;;;;;0.10;0.10;;;;;;;;;;5045910;28;20208;-68
2024/03/17 09:41:31;;;;;;;0.08;0.08;;;;;;;;;;5035190;28;20248;-70
2024/03/17 09:43:58;;;;;;;0.00;0.00;;;;;;;;;;5045765;28;20205;-70
2024/03/17 09:46:25;;;;;;;0.10;0.10;;;;;;;;;;5035108;28;20498;-70
2024/03/17 09:48:54;;;;;;;0.10;0.10;;;;;;;;;;5045592;28;20275;-70
2024/03/17 09:51:22;;;;;;;0.10;0.10;;;;;;;;;;5035278;28;20483;-71
2024/03/17 09:53:48;;;;;;;0.00;0.00;;;;;;;;;;5045323;28;20239;-71
2024/03/17 09:56:16;;;;;;;0.10;0.10;;;;;;;;;;5034937;28;20252;-71
2024/03/17 09:58:42;;;;;;;0.00;0.00;;;;;;;;;;5045449;28;20205;-73
2024/03/17 10:01:09;;;;;;;0.10;0.10;;;;;;;;;;5034940;28;20278;-71
2024/03/17 10:03:45;;;;;;;0.10;0.10;;;;;;;;;;5045165;28;20235;-71
2024/03/17 10:06:14;;;;;;;1.55;1.17;;;;;;;;;;5034638;28;20482;-72
2024/03/17 10:08:44;;;;;;;0.10;0.10;;;;;;;;;;5045005;28;20212;-72
2024/03/17 10:11:11;;;;;;;0.10;0.10;;;;;;;;;;5034642;28;20253;-72
2024/03/17 10:13:37;;;;;;;0.10;0.10;;;;;;;;;;5044862;28;20273;-72
2024/03/17 10:16:04;;;;;;;0.20;0.20;;;;;;;;;;5034651;28;20249;-73
2024/03/17 10:18:30;;;;;;;0.00;0.00;;;;;;;;;;5044648;28;20267;-72
2024/03/17 10:20:58;;;;;;;0.00;0.00;;;;;;;;;;5034600;28;20248;-72
2024/03/17 10:23:28;;;;;;;0.00;0.00;;;;;;;;;;5044746;28;20423;-72
2024/03/17 10:25:54;;;;;;;0.00;0.00;;;;;;;;;;5034700;28;20244;-71
2024/03/17 10:28:20;;;;;;;0.00;0.00;;;;;;;;;;5044293;28;20280;-72
2024/03/17 10:30:57;;;;;;;0.00;0.00;;;;;;;;;;5034831;28;20568;-72
2024/03/17 10:33:26;;;;;;;0.00;0.00;;;;;;;;;;5044578;28;20250;-72
2024/03/17 10:35:57;;;;;;;0.00;0.00;;;;;;;;;;5034532;28;20257;-72
2024/03/17 10:38:24;;;;;;;0.00;0.00;;;;;;;;;;5044384;28;20223;-71
2024/03/17 10:40:51;;;;;;;0.00;0.00;;;;;;;;;;5034528;28;20486;-71
2024/03/17 10:43:19;;;;;;;0.00;0.00;;;;;;;;;;5044080;28;20211;-72
2024/03/17 10:45:46;;;;;;;0.05;0.05;;;;;;;;;;5034223;28;20244;-71
2024/03/17 10:48:16;;;;;;;0.10;0.10;;;;;;;;;;5043463;28;20225;-72
2024/03/17 10:50:44;;;;;;;0.00;0.00;;;;;;;;;;5034259;28;20304;-72
2024/03/17 10:53:13;;;;;;;0.17;0.17;;;;;;;;;;5044031;28;20251;-72
2024/03/17 10:55:43;;;;;;;0.10;0.10;;;;;;;;;;5034365;28;20303;-72
2024/03/17 10:58:16;;;;;;;0.05;0.05;;;;;;;;;;5043593;28;20201;-72
2024/03/17 11:00:43;;;;;;;0.00;0.00;;;;;;;;;;5034163;28;20526;-72
2024/03/17 11:03:11;;;;;;;0.05;0.05;;;;;;;;;;5043482;28;20205;-72
2024/03/17 11:05:38;;;;;;;0.10;0.10;;;;;;;;;;5033961;28;20247;-72
2024/03/17 11:08:05;;;;;;;0.08;0.08;;;;;;;;;;5043578;28;20563;-71
2024/03/17 11:10:32;;;;;;;0.10;0.10;;;;;;;;;;5034065;28;20244;-73
2024/03/17 11:12:59;;;;;;;0.10;0.10;;;;;;;;;;5043592;28;20201;-72
2024/03/17 11:15:43;;;;;;;0.08;0.08;;;;;;;;;;5034351;28;20424;-73
2024/03/17 11:18:40;;;;;;;0.10;0.10;;;;;;;;;;5043200;28;20221;-71
2024/03/17 11:21:14;;;;;;;0.00;0.00;;;;;;;;;;4985119;28;20247;-72
2024/03/17 11:23:41;;;;;;;0.00;0.00;;;;;;;;;;5032935;28;20496;-72
2024/03/17 11:26:08;;;;;;;0.10;0.10;;;;;;;;;;5041547;28;20461;-72
2024/03/17 11:28:51;;;;;;;0.10;0.10;;;;;;;;;;5051875;28;20449;-72
2024/03/17 11:31:35;;;;;;;0.00;0.00;;;;;;;;;;5042732;28;20243;-72
2024/03/17 11:34:04;;;;;;;0.10;0.10;;;;;;;;;;5048065;28;20404;-71
2024/03/17 11:36:30;;;;;;;0.05;0.05;;;;;;;;;;5043994;28;20242;-74
2024/03/17 11:38:57;;;;;;;0.25;0.25;;;;;;;;;;5048950;28;20237;-71
2024/03/17 11:41:40;;;;;;;2.55;2.40;;;;;;;;;;5043238;28;20266;-72
2024/03/17 11:44:18;;;;;;;0.30;0.30;;;;;;;;;;5047536;28;20208;-72
2024/03/17 11:46:43;;;;;;;0.00;0.00;;;;;;;;;;5045760;28;20455;-72
2024/03/17 11:49:17;;;;;;;0.00;0.00;;;;;;;;;;5046842;28;20212;-72
2024/03/17 11:51:43;;;;;;;0.10;0.10;;;;;;;;;;5045671;28;20240;-72
2024/03/17 11:54:14;;;;;;;0.00;0.00;;;;;;;;;;5046971;28;20249;-72
2024/03/17 11:56:40;;;;;;;0.03;0.03;;;;;;;;;;5045153;28;20250;-73
2024/03/17 11:59:09;;;;;;;0.00;0.00;;;;;;;;;;5046617;28;20272;-72
2024/03/17 12:01:34;;;;;;;0.00;0.00;;;;;;;;;;5043863;28;20239;-72
2024/03/17 12:04:05;;;;;;;0.00;0.00;;;;;;;;;;5048689;28;20266;-72
2024/03/17 12:06:32;;;;;;;0.00;0.00;;;;;;;;;;5043794;28;20307;-71
2024/03/17 12:09:09;;;;;;;0.00;0.00;;;;;;;;;;5048430;28;20204;-73
2024/03/17 12:11:35;;;;;;;0.10;0.10;;;;;;;;;;5044454;28;20444;-73
2024/03/17 12:14:09;;;;;;;0.00;0.00;;;;;;;;;;5047827;28;20209;-72
2024/03/17 12:16:34;;;;;;;0.00;0.00;;;;;;;;;;5044566;28;20238;-73
2024/03/17 12:19:06;;;;;;;0.00;0.00;;;;;;;;;;5047663;28;20428;-72
2024/03/17 12:21:35;;;;;;;0.13;0.13;;;;;;;;;;5044109;28;20250;-73
2024/03/17 12:24:01;;;;;;;0.00;0.00;;;;;;;;;;5047881;28;20276;-72
2024/03/17 12:26:27;;;;;;;0.00;0.00;;;;;;;;;;5043388;28;20281;-73
2024/03/17 12:28:54;;;;;;;0.00;0.00;;;;;;;;;;5048406;28;20224;-72
2024/03/17 12:31:19;;;;;;;0.10;0.10;;;;;;;;;;5042240;28;20240;-73
2024/03/17 12:33:46;;;;;;;0.00;0.00;;;;;;;;;;5049719;28;20205;-72
2024/03/17 12:36:13;;;;;;;0.00;0.00;;;;;;;;;;5041098;28;20239;-72
2024/03/17 12:38:41;;;;;;;0.00;0.00;;;;;;;;;;5050151;28;20207;-73
2024/03/17 12:41:16;;;;;;;0.00;0.00;;;;;;;;;;5040523;28;20247;-72
2024/03/17 12:43:48;;;;;;;0.00;0.00;;;;;;;;;;5049885;28;20399;-72
2024/03/17 12:46:14;;;;;;;0.00;0.00;;;;;;;;;;5041381;28;20315;-73
2024/03/17 12:48:40;;;;;;;0.00;0.00;;;;;;;;;;5050072;28;20233;-72
2024/03/17 12:51:12;;;;;;;0.00;0.00;;;;;;;;;;5040353;28;20240;-72
2024/03/17 12:53:39;;;;;;;0.00;0.00;;;;;;;;;;5050150;28;20311;-73
2024/03/17 13:01:35;;;;;;;0.00;0.00;;;;;;;;;;5043780;28;20705;-73
2024/03/17 13:04:06;;;;;;;0.00;0.00;;;;;;;;;;5047370;28;20448;-73
2024/03/17 13:06:33;;;;;;;0.00;0.00;;;;;;;;;;5043391;28;20244;-73
2024/03/17 13:09:00;;;;;;;0.30;0.30;;;;;;;;;;5047503;28;20471;-73
2024/03/17 13:11:29;;;;;;;0.00;0.00;;;;;;;;;;5046334;28;20270;-73
2024/03/17 13:13:56;;;;;;;0.00;0.00;;;;;;;;;;5051474;28;20208;-73
2024/03/17 13:16:22;;;;;;;0.00;0.00;;;;;;;;;;5045824;28;20240;-73
2024/03/17 13:18:49;;;;;;;0.00;0.00;;;;;;;;;;5052540;28;20467;-73
2024/03/17 13:21:15;;;;;;;0.00;0.00;;;;;;;;;;5044672;28;20326;-71
2024/03/17 13:23:42;;;;;;;0.00;0.00;;;;;;;;;;5053124;28;20212;-73
2024/03/17 13:26:08;;;;;;;0.00;0.00;;;;;;;;;;5043797;28;20247;-72
2024/03/17 13:28:36;;;;;;;0.00;0.00;;;;;;;;;;5054055;28;20224;-73
2024/03/17 13:31:04;;;;;;;0.00;0.00;;;;;;;;;;5042742;28;20251;-72
2024/03/17 13:33:31;;;;;;;0.00;0.00;;;;;;;;;;5054465;28;20423;-72
2024/03/17 13:35:57;;;;;;;0.00;0.00;;;;;;;;;;5042081;28;20294;-72
2024/03/17 13:38:23;;;;;;;0.00;0.00;;;;;;;;;;5055005;28;20242;-71
2024/03/17 13:40:50;;;;;;;0.00;0.00;;;;;;;;;;5040994;28;20592;-70
2024/03/17 13:43:16;;;;;;;0.00;0.00;;;;;;;;;;5055821;28;20273;-71
2024/03/17 13:45:45;;;;;;;0.00;0.00;;;;;;;;;;5039862;28;20286;-69
2024/03/17 13:48:11;;;;;;;0.00;0.00;;;;;;;;;;5056692;28;20219;-68
2024/03/17 13:50:39;;;;;;;0.00;0.00;;;;;;;;;;5039608;28;20244;-69
2024/03/17 13:53:05;;;;;;;0.00;0.00;;;;;;;;;;5057325;28;20264;-69
2024/03/17 13:55:32;;;;;;;0.00;0.00;;;;;;;;;;5038666;28;20315;-74
2024/03/17 13:58:00;;;;;;;0.00;0.00;;;;;;;;;;5057939;28;20189;-71
2024/03/17 14:00:27;;;;;;;0.03;0.03;;;;;;;;;;5038021;28;20193;-72
2024/03/17 14:02:55;;;;;;;0.00;0.00;;;;;;;;;;5058668;28;20221;-72
2024/03/17 14:05:22;;;;;;;0.00;0.00;;;;;;;;;;5037523;28;20205;-72
2024/03/17 14:07:48;;;;;;;0.10;0.10;;;;;;;;;;5059299;28;20216;-72
2024/03/17 14:10:16;;;;;;;0.10;0.10;;;;;;;;;;5035852;28;20447;-72
2024/03/17 14:12:42;;;;;;;0.10;0.10;;;;;;;;;;5060132;28;20234;-72
2024/03/17 14:15:10;;;;;;;0.00;0.00;;;;;;;;;;5035325;28;20247;-72
2024/03/17 14:17:37;;;;;;;0.00;0.00;;;;;;;;;;5028064;28;20217;-70
2024/03/17 14:20:05;;;;;;;0.10;0.10;;;;;;;;;;5018855;28;20453;-71
2024/03/17 14:22:32;;;;;;;0.05;0.05;;;;;;;;;;5030040;28;20254;-69
2024/03/17 14:24:58;;;;;;;0.10;0.10;;;;;;;;;;5025151;28;20211;-73
2024/03/17 14:27:27;;;;;;;0.10;0.10;;;;;;;;;;5030461;28;20257;-70
2024/03/17 14:29:54;;;;;;;0.05;0.05;;;;;;;;;;5025497;28;20209;-69
2024/03/17 14:32:20;;;;;;;0.00;0.00;;;;;;;;;;5018589;28;20256;-72
2024/03/17 14:34:47;;;;;;;0.10;0.10;;;;;;;;;;5005818;28;20276;-72
2024/03/17 14:37:15;;;;;;;0.10;0.10;;;;;;;;;;5027677;28;20247;-71
2024/03/17 14:39:41;;;;;;;0.00;0.00;;;;;;;;;;5025303;28;20211;-72
2024/03/17 14:42:08;;;;;;;0.10;0.10;;;;;;;;;;5013749;28;20304;-71
2024/03/17 14:44:35;;;;;;;0.00;0.00;;;;;;;;;;5025084;28;20208;-72
2024/03/17 14:47:01;;;;;;;0.10;0.10;;;;;;;;;;5013695;28;20305;-71
2024/03/17 14:49:28;;;;;;;0.08;0.08;;;;;;;;;;5025027;28;20226;-71